createdAt,value
2022-08-26T00:01:54.176Z,43.15
2022-08-26T00:04:24.503Z,37.05
2022-08-26T00:06:53.360Z,35.05
2022-08-26T00:09:21.153Z,37.22
2022-08-26T00:11:48.786Z,32.13
2022-08-26T00:14:16.610Z,42.60
2022-08-26T00:16:47.908Z,46.38
2022-08-26T00:19:18.433Z,22.35
2022-08-26T00:21:49.695Z,37.78
2022-08-26T00:24:19.098Z,37.78
2022-08-26T00:26:47.622Z,29.02
2022-08-26T00:31:45.133Z,32.10
2022-08-26T00:34:13.885Z,41.70
2022-08-26T00:36:41.204Z,35.35
2022-08-26T00:39:09.200Z,31.83
2022-08-26T00:41:42.731Z,53.55
2022-08-26T00:44:10.650Z,38.03
2022-08-26T00:46:47.603Z,34.67
2022-08-26T00:49:30.426Z,35.95
2022-08-26T00:52:02.664Z,35.90
2022-08-26T00:54:35.291Z,45.92
2022-08-26T00:57:15.947Z,31.63
2022-08-26T00:59:59.593Z,55.00
2022-08-26T01:02:28.060Z,31.02
2022-08-26T01:05:00.923Z,41.92
2022-08-26T01:07:32.186Z,38.78
2022-08-26T01:10:06.051Z,37.75
2022-08-26T01:12:44.114Z,37.63
2022-08-26T01:15:18.271Z,35.53
2022-08-26T01:17:45.655Z,34.22
2022-08-26T01:20:29.112Z,37.70
2022-08-26T01:23:04.597Z,44.55
2022-08-26T01:25:36.356Z,36.05
2022-08-26T01:28:08.646Z,35.30
2022-08-26T01:30:40.206Z,36.03
2022-08-26T01:33:15.251Z,24.77
2022-08-26T01:35:43.978Z,39.63
2022-08-26T01:38:12.138Z,37.90
2022-08-26T01:40:42.807Z,31.50
2022-08-26T01:43:18.662Z,41.83
2022-08-26T01:45:47.727Z,27.05
2022-08-26T01:48:22.494Z,36.90
2022-08-26T01:50:52.126Z,25.80
2022-08-26T01:53:22.084Z,35.80
2022-08-26T01:55:56.405Z,36.35
2022-08-26T01:58:39.902Z,27.35
2022-08-26T02:01:07.368Z,26.63
2022-08-26T02:03:50.746Z,26.10
2022-08-26T02:06:19.103Z,28.95
2022-08-26T02:11:18.768Z,28.42
2022-08-26T02:13:54.989Z,28.42
2022-08-26T02:16:26.603Z,32.85
2022-08-26T02:18:55.268Z,36.63
2022-08-26T02:23:51.432Z,28.77
2022-08-26T02:26:23.888Z,35.65
2022-08-26T02:29:31.009Z,21.63
2022-08-26T02:31:58.724Z,23.33
2022-08-26T02:34:34.219Z,34.00
2022-08-26T02:37:05.819Z,31.17
2022-08-26T02:39:34.900Z,38.17
2022-08-26T02:42:02.789Z,25.75
2022-08-26T02:44:31.063Z,21.42
2022-08-26T02:47:01.074Z,26.35
2022-08-26T02:49:29.748Z,40.03
2022-08-26T02:52:00.599Z,29.38
2022-08-26T02:54:29.205Z,31.33
2022-08-26T02:56:56.263Z,26.55
2022-08-26T02:59:24.409Z,23.58
2022-08-26T03:01:52.424Z,27.02
2022-08-26T03:04:25.864Z,34.05
2022-08-26T03:06:55.463Z,28.70
2022-08-26T03:09:23.609Z,23.25
2022-08-26T03:11:52.270Z,31.70
2022-08-26T03:16:50.241Z,41.13
2022-08-26T03:19:18.332Z,27.15
2022-08-26T03:21:47.432Z,27.50
2022-08-26T03:24:16.963Z,20.63
2022-08-26T03:26:52.502Z,22.88
2022-08-26T03:29:40.329Z,26.83
2022-08-26T03:32:08.303Z,20.17
2022-08-26T03:34:36.417Z,54.42
2022-08-26T03:37:03.836Z,33.28
2022-08-26T03:39:31.617Z,35.20
2022-08-26T03:41:59.673Z,28.30
2022-08-26T03:44:27.274Z,30.10
2022-08-26T03:46:55.027Z,25.20
2022-08-26T03:49:22.416Z,34.87
2022-08-26T03:51:49.647Z,41.28
2022-08-26T03:54:17.567Z,34.63
2022-08-26T03:56:46.466Z,33.55
2022-08-26T03:59:14.144Z,29.10
2022-08-26T04:01:41.677Z,29.58
2022-08-26T04:04:09.238Z,37.80
2022-08-26T04:06:42.767Z,31.88
2022-08-26T04:09:17.362Z,43.58
2022-08-26T04:11:46.321Z,39.97
2022-08-26T04:14:21.846Z,28.52
2022-08-26T04:16:50.618Z,43.42
2022-08-26T04:19:20.272Z,30.15
2022-08-26T04:21:51.380Z,33.53
2022-08-26T04:24:21.701Z,35.65
2022-08-26T04:26:49.738Z,29.35
2022-08-26T04:29:23.495Z,36.90
2022-08-26T04:31:55.609Z,27.67
2022-08-26T04:34:25.334Z,34.25
2022-08-26T04:36:57.245Z,42.30
2022-08-26T04:41:54.335Z,33.55
2022-08-26T04:44:24.981Z,32.03
2022-08-26T04:46:52.947Z,38.75
2022-08-26T04:49:20.972Z,37.55
2022-08-26T04:51:52.147Z,37.42
2022-08-26T04:54:19.463Z,37.38
2022-08-26T04:56:48.922Z,52.22
2022-08-26T04:59:18.328Z,38.47
2022-08-26T05:01:52.082Z,48.53
2022-08-26T05:04:20.410Z,30.55
2022-08-26T05:06:49.010Z,44.67
2022-08-26T05:09:17.874Z,56.58
2022-08-26T05:11:45.708Z,34.22
2022-08-26T05:14:17.748Z,43.15
2022-08-26T05:16:45.011Z,48.58
2022-08-26T05:19:16.037Z,34.78
2022-08-26T05:21:47.892Z,29.90
2022-08-26T05:24:16.283Z,39.85
2022-08-26T05:26:44.581Z,35.60
2022-08-26T05:29:13.413Z,34.25
2022-08-26T05:34:08.403Z,31.63
2022-08-26T05:36:36.250Z,32.28
2022-08-26T05:39:05.832Z,45.47
2022-08-26T05:41:38.384Z,57.83
2022-08-26T05:44:10.595Z,32.30
2022-08-26T05:46:42.289Z,40.72
2022-08-26T05:49:14.960Z,36.95
2022-08-26T05:51:45.664Z,35.67
2022-08-26T05:54:14.728Z,35.58
2022-08-26T05:56:49.219Z,33.08
2022-08-26T05:59:16.453Z,33.78
2022-08-26T06:01:48.523Z,42.22
2022-08-26T06:04:16.624Z,29.00
2022-08-26T06:06:47.628Z,27.33
2022-08-26T06:09:14.960Z,41.13
2022-08-26T06:11:45.450Z,29.17
2022-08-26T06:14:12.674Z,35.08
2022-08-26T06:16:44.487Z,26.73
2022-08-26T06:19:14.865Z,25.10
2022-08-26T06:21:46.510Z,30.30
2022-08-26T06:24:33.208Z,26.98
2022-08-26T06:27:05.035Z,27.65
2022-08-26T06:29:34.985Z,22.83
2022-08-26T06:32:04.262Z,25.33
2022-08-26T06:34:32.053Z,24.40
2022-08-26T06:37:05.399Z,32.53
2022-08-26T06:39:34.020Z,36.92
2022-08-26T06:42:02.640Z,31.75
2022-08-26T06:44:34.142Z,42.47
2022-08-26T06:47:01.692Z,26.73
2022-08-26T06:49:28.841Z,29.92
2022-08-26T06:51:57.484Z,38.42
2022-08-26T06:54:26.976Z,18.45
2022-08-26T06:56:56.195Z,13.48
2022-08-26T06:59:24.127Z,31.23
2022-08-26T07:01:51.606Z,32.15
2022-08-26T07:04:21.943Z,27.67
2022-08-26T07:06:53.001Z,38.10
2022-08-26T07:09:27.667Z,18.20
2022-08-26T07:11:55.697Z,29.08
2022-08-26T07:16:51.975Z,23.98
2022-08-26T07:19:29.111Z,25.70
2022-08-26T07:22:03.392Z,47.63
2022-08-26T07:24:35.057Z,34.05
2022-08-26T07:27:06.243Z,41.25
2022-08-26T07:29:34.881Z,44.08
2022-08-26T07:32:03.363Z,24.30
2022-08-26T07:36:59.602Z,25.45
2022-08-26T07:39:27.319Z,18.20
2022-08-26T07:41:55.028Z,13.77
2022-08-26T07:44:23.376Z,22.00
2022-08-26T07:46:52.400Z,10.93
2022-08-26T07:49:26.021Z,22.30
2022-08-26T07:51:54.717Z,17.30
2022-08-26T07:54:26.997Z,14.70
2022-08-26T07:56:55.866Z,14.93
2022-08-26T07:59:23.567Z,18.13
2022-08-26T08:01:51.327Z,25.52
2022-08-26T08:04:25.534Z,18.60
2022-08-26T08:06:54.760Z,19.85
2022-08-26T08:09:22.576Z,26.23
2022-08-26T08:11:49.727Z,14.73
2022-08-26T08:14:19.265Z,13.48
2022-08-26T08:16:51.245Z,22.80
2022-08-26T08:19:22.826Z,20.77
2022-08-26T08:21:51.080Z,14.40
2022-08-26T08:24:18.549Z,16.13
2022-08-26T08:26:45.788Z,10.45
2022-08-26T08:29:13.237Z,11.57
2022-08-26T08:31:57.979Z,12.32
2022-08-26T08:34:28.466Z,13.82
2022-08-26T08:36:57.079Z,12.07
2022-08-26T08:39:25.400Z,13.43
2022-08-26T08:42:06.767Z,16.58
2022-08-26T08:44:40.255Z,20.20
2022-08-26T08:47:37.082Z,20.00
2022-08-26T08:50:34.825Z,23.57
2022-08-26T08:53:16.819Z,28.10
2022-08-26T08:55:59.944Z,20.75
2022-08-26T08:59:24.163Z,14.57
2022-08-26T09:01:52.534Z,9.40
2022-08-26T09:04:55.098Z,14.27
2022-08-26T09:07:55.434Z,22.75
2022-08-26T09:10:45.498Z,11.32
2022-08-26T09:13:25.361Z,11.00
2022-08-26T09:16:08.276Z,12.10
2022-08-26T09:18:55.615Z,16.63
2022-08-26T09:21:25.162Z,13.32
2022-08-26T09:23:55.723Z,16.58
2022-08-26T09:26:43.603Z,11.95
2022-08-26T09:29:23.831Z,18.35
2022-08-26T09:32:12.341Z,21.65
2022-08-26T09:35:01.295Z,14.82
2022-08-26T09:37:39.430Z,13.43
2022-08-26T09:40:34.817Z,16.55
2022-08-26T09:43:15.897Z,29.63
2022-08-26T09:45:58.492Z,19.05
2022-08-26T09:48:37.103Z,22.08
2022-08-26T09:51:31.200Z,16.58
2022-08-26T09:54:01.758Z,11.05
2022-08-26T09:56:33.891Z,15.23
2022-08-26T09:59:03.258Z,10.15
2022-08-26T10:01:43.221Z,13.93
2022-08-26T10:04:14.008Z,15.00
2022-08-26T10:07:04.141Z,13.38
2022-08-26T10:09:38.514Z,18.35
2022-08-26T10:12:16.354Z,10.80
2022-08-26T10:14:57.119Z,7.70
2022-08-26T10:18:05.646Z,12.88
2022-08-26T10:20:40.977Z,16.90
2022-08-26T10:23:18.004Z,10.23
2022-08-26T10:25:57.973Z,19.50
2022-08-26T10:29:06.201Z,13.65
2022-08-26T10:34:13.967Z,8.73
2022-08-26T10:37:14.316Z,11.27
2022-08-26T10:40:10.513Z,19.88
2022-08-26T10:43:11.456Z,11.02
2022-08-26T10:45:47.117Z,16.83
2022-08-26T10:48:48.827Z,11.07
2022-08-26T10:51:23.459Z,16.70
2022-08-26T10:54:06.077Z,9.45
2022-08-26T10:56:38.799Z,14.50
2022-08-26T10:59:12.516Z,13.45
2022-08-26T11:01:43.182Z,13.77
2022-08-26T11:04:37.594Z,8.90
2022-08-26T11:07:39.011Z,16.25
2022-08-26T11:10:21.876Z,20.10
2022-08-26T11:13:06.289Z,10.10
2022-08-26T11:15:40.112Z,21.55
2022-08-26T11:18:10.952Z,12.50
2022-08-26T11:20:47.230Z,8.57
2022-08-26T11:23:23.215Z,23.08
2022-08-26T11:26:09.128Z,15.18
2022-08-26T11:28:44.155Z,15.07
2022-08-26T11:31:39.264Z,13.02
2022-08-26T11:34:12.060Z,26.45
2022-08-26T11:36:45.524Z,7.78
2022-08-26T11:39:28.272Z,16.27
2022-08-26T11:42:04.487Z,15.32
2022-08-26T11:44:40.686Z,10.30
2022-08-26T11:47:11.489Z,13.93
2022-08-26T11:49:39.032Z,17.13
2022-08-26T11:52:11.585Z,19.17
2022-08-26T11:54:39.091Z,30.65
2022-08-26T11:57:12.038Z,7.95
2022-08-26T11:59:41.696Z,12.23
2022-08-26T12:02:16.451Z,11.93
2022-08-26T12:04:50.086Z,11.82
2022-08-26T12:07:25.365Z,15.35
2022-08-26T12:09:57.884Z,15.85
2022-08-26T12:12:34.944Z,25.20
2022-08-26T12:15:17.944Z,16.25
2022-08-26T12:17:51.689Z,14.82
2022-08-26T12:20:53.379Z,14.27
2022-08-26T12:23:39.487Z,28.23
2022-08-26T12:26:23.413Z,16.15
2022-08-26T12:29:00.161Z,14.75
2022-08-26T12:31:41.997Z,11.63
2022-08-26T12:34:18.029Z,17.33
2022-08-26T12:36:48.458Z,11.23
2022-08-26T12:39:32.446Z,18.38
2022-08-26T12:42:01.752Z,18.80
2022-08-26T12:44:42.050Z,19.67
2022-08-26T12:47:39.038Z,13.00
2022-08-26T12:50:30.351Z,20.45
2022-08-26T12:53:11.373Z,18.67
2022-08-26T12:55:55.938Z,15.07
2022-08-26T12:58:37.124Z,15.90
2022-08-26T13:01:04.390Z,17.70
2022-08-26T13:03:34.645Z,14.37
2022-08-26T13:06:29.593Z,19.73
2022-08-26T13:09:18.478Z,17.85
2022-08-26T13:11:46.125Z,8.85
2022-08-26T13:14:23.611Z,19.33
2022-08-26T13:16:52.809Z,16.90
2022-08-26T13:19:28.895Z,29.48
2022-08-26T13:21:59.328Z,12.48
2022-08-26T13:24:41.798Z,25.80
2022-08-26T13:27:12.551Z,14.00
2022-08-26T13:29:40.779Z,10.80
2022-08-26T13:34:37.220Z,14.15
2022-08-26T13:37:05.293Z,17.05
2022-08-26T13:39:32.535Z,26.73
2022-08-26T13:41:59.752Z,17.38
2022-08-26T13:44:27.188Z,17.65
2022-08-26T13:46:54.356Z,11.98
2022-08-26T13:49:22.004Z,15.70
2022-08-26T13:51:49.144Z,9.23
2022-08-26T13:54:16.251Z,12.52
2022-08-26T13:56:43.451Z,15.93
2022-08-26T13:59:10.683Z,14.48
2022-08-26T14:01:39.353Z,16.60
2022-08-26T14:04:06.830Z,14.07
2022-08-26T14:06:33.976Z,20.02
2022-08-26T14:09:01.187Z,11.60
2022-08-26T14:11:29.411Z,11.25
2022-08-26T14:14:08.468Z,13.20
2022-08-26T14:16:39.393Z,7.15
2022-08-26T14:19:29.334Z,13.82
2022-08-26T14:21:58.563Z,6.35
2022-08-26T14:24:25.891Z,13.20
2022-08-26T14:26:53.139Z,19.20
2022-08-26T14:29:20.307Z,16.58
2022-08-26T14:31:47.801Z,14.20
2022-08-26T14:34:15.408Z,16.33
2022-08-26T14:36:42.865Z,15.10
2022-08-26T14:39:12.642Z,22.47
2022-08-26T14:41:53.887Z,16.42
2022-08-26T14:44:30.534Z,12.50
2022-08-26T14:47:01.856Z,15.10
2022-08-26T14:49:30.569Z,27.35
2022-08-26T14:51:57.932Z,22.05
2022-08-26T14:54:25.629Z,17.63
2022-08-26T14:57:00.411Z,13.85
2022-08-26T14:59:35.188Z,25.95
2022-08-26T15:02:03.360Z,16.95
2022-08-26T15:06:59.678Z,18.33
2022-08-26T15:09:28.905Z,14.18
2022-08-26T15:11:56.316Z,18.67
2022-08-26T15:14:24.318Z,21.27
2022-08-26T15:16:55.540Z,16.63
2022-08-26T15:19:28.464Z,20.00
2022-08-26T15:21:55.956Z,27.45
2022-08-26T15:24:25.371Z,16.00
2022-08-26T15:26:53.481Z,19.08
2022-08-26T15:31:50.771Z,14.38
2022-08-26T15:34:18.006Z,18.35
2022-08-26T15:36:47.264Z,19.83
2022-08-26T15:39:16.494Z,20.92
2022-08-26T15:41:43.972Z,32.65
2022-08-26T15:44:13.098Z,17.15
2022-08-26T15:46:41.328Z,20.98
2022-08-26T15:49:08.900Z,11.48
2022-08-26T15:51:46.376Z,15.55
2022-08-26T15:54:15.978Z,20.00
2022-08-26T15:56:44.140Z,13.02
2022-08-26T15:59:11.708Z,17.67
2022-08-26T16:01:39.722Z,18.20
2022-08-26T16:04:07.052Z,25.02
2022-08-26T16:06:37.425Z,15.93
2022-08-26T16:09:06.155Z,15.75
2022-08-26T16:11:35.378Z,16.98
2022-08-26T16:14:04.456Z,16.63
2022-08-26T16:16:32.261Z,14.82
2022-08-26T16:19:02.187Z,13.05
2022-08-26T16:21:31.659Z,14.25
2022-08-26T16:23:59.174Z,18.23
2022-08-26T16:26:33.386Z,14.32
2022-08-26T16:29:04.690Z,21.95
2022-08-26T16:31:32.218Z,16.75
2022-08-26T16:33:59.427Z,15.77
2022-08-26T16:36:26.714Z,10.13
2022-08-26T16:38:55.676Z,12.93
2022-08-26T16:41:25.561Z,11.13
2022-08-26T16:43:54.616Z,25.20
2022-08-26T16:46:24.931Z,25.00
2022-08-26T16:48:54.292Z,17.73
2022-08-26T16:51:26.407Z,12.95
2022-08-26T16:53:55.682Z,11.23
2022-08-26T16:56:33.461Z,20.08
2022-08-26T16:59:07.390Z,8.32
2022-08-26T17:01:34.843Z,10.35
2022-08-26T17:04:02.320Z,12.97
2022-08-26T17:06:29.580Z,13.77
2022-08-26T17:08:56.764Z,25.70
2022-08-26T17:11:23.918Z,18.45
2022-08-26T17:13:51.110Z,13.88
2022-08-26T17:16:19.161Z,21.25
2022-08-26T17:18:47.535Z,19.73
2022-08-26T17:21:15.063Z,14.85
2022-08-26T17:23:44.196Z,26.20
2022-08-26T17:26:11.837Z,20.63
2022-08-26T17:28:39.699Z,17.73
2022-08-26T17:31:09.322Z,15.63
2022-08-26T17:33:37.592Z,11.65
2022-08-26T17:36:07.216Z,17.85
2022-08-26T17:38:35.607Z,19.00
2022-08-26T17:41:07.407Z,20.98
2022-08-26T17:43:34.565Z,18.83
2022-08-26T17:46:07.049Z,14.43
2022-08-26T17:48:37.093Z,18.23
2022-08-26T17:51:14.475Z,19.40
2022-08-26T17:53:42.332Z,16.23
2022-08-26T17:56:13.067Z,19.05
2022-08-26T17:58:41.013Z,19.15
2022-08-26T18:01:15.718Z,19.50
2022-08-26T18:03:43.140Z,29.97
2022-08-26T18:06:12.396Z,30.13
2022-08-26T18:08:40.820Z,33.88
2022-08-26T18:13:38.284Z,24.85
2022-08-26T18:16:16.970Z,22.60
2022-08-26T18:18:46.012Z,32.58
2022-08-26T18:21:20.857Z,24.02
2022-08-26T18:23:49.590Z,24.70
2022-08-26T18:26:27.823Z,22.45
2022-08-26T18:31:22.735Z,17.35
2022-08-26T18:33:50.317Z,16.73
2022-08-26T18:36:24.299Z,25.27
2022-08-26T18:38:53.392Z,13.85
2022-08-26T18:41:23.564Z,17.45
2022-08-26T18:43:52.617Z,21.88
2022-08-26T18:46:24.241Z,12.57
2022-08-26T18:48:54.488Z,14.65
2022-08-26T18:51:31.153Z,14.80
2022-08-26T18:54:00.934Z,17.50
2022-08-26T18:56:29.078Z,13.60
2022-08-26T18:58:58.306Z,15.43
2022-08-26T19:01:27.889Z,13.48
2022-08-26T19:03:57.870Z,21.88
2022-08-26T19:06:27.783Z,12.98
2022-08-26T19:08:57.883Z,17.75
2022-08-26T19:11:32.046Z,17.50
2022-08-26T19:14:13.106Z,18.98
2022-08-26T19:16:43.930Z,29.77
2022-08-26T19:19:12.135Z,17.20
2022-08-26T19:21:40.479Z,26.65
2022-08-26T19:24:16.840Z,21.58
2022-08-26T19:26:48.600Z,22.35
2022-08-26T19:31:49.914Z,15.60
2022-08-26T19:34:18.283Z,11.82
2022-08-26T19:36:48.984Z,16.60
2022-08-26T19:39:16.240Z,15.10
2022-08-26T19:41:43.842Z,19.48
2022-08-26T19:44:38.220Z,22.67
2022-08-26T19:47:08.355Z,15.38
2022-08-26T19:49:36.397Z,14.80
2022-08-26T19:52:05.377Z,19.50
2022-08-26T19:54:34.622Z,14.05
2022-08-26T19:57:01.941Z,27.35
2022-08-26T19:59:29.209Z,18.30
2022-08-26T20:02:00.831Z,13.68
2022-08-26T20:04:30.944Z,13.20
2022-08-26T20:07:00.535Z,13.98
2022-08-26T20:09:33.366Z,12.38
2022-08-26T20:12:04.473Z,16.80
2022-08-26T20:14:33.047Z,18.10
2022-08-26T20:17:02.315Z,22.27
2022-08-26T20:19:48.421Z,18.73
2022-08-26T20:22:16.906Z,10.52
2022-08-26T20:27:12.637Z,11.87
2022-08-26T20:29:40.088Z,18.70
2022-08-26T20:32:08.502Z,15.35
2022-08-26T20:37:04.564Z,16.75
2022-08-26T20:39:31.799Z,20.63
2022-08-26T20:41:59.117Z,17.92
2022-08-26T20:44:26.708Z,35.83
2022-08-26T20:46:54.641Z,25.70
2022-08-26T20:49:22.064Z,15.45
2022-08-26T20:51:50.846Z,36.50
2022-08-26T20:54:23.951Z,24.75
2022-08-26T20:56:54.971Z,22.38
2022-08-26T20:59:22.726Z,19.63
2022-08-26T21:01:50.313Z,19.45
2022-08-26T21:04:22.164Z,24.05
2022-08-26T21:06:52.334Z,32.03
2022-08-26T21:09:23.116Z,19.90
2022-08-26T21:11:51.872Z,21.50
2022-08-26T21:14:20.024Z,17.92
2022-08-26T21:16:47.354Z,11.95
2022-08-26T21:19:17.593Z,20.85
2022-08-26T21:21:47.266Z,17.52
2022-08-26T21:24:14.675Z,10.27
2022-08-26T21:26:42.407Z,16.45
2022-08-26T21:29:09.814Z,15.10
2022-08-26T21:31:42.279Z,19.35
2022-08-26T21:34:14.196Z,20.20
2022-08-26T21:36:41.458Z,17.52
2022-08-26T21:39:12.022Z,28.08
2022-08-26T21:41:41.855Z,14.18
2022-08-26T21:44:10.320Z,20.50
2022-08-26T21:46:37.576Z,19.75
2022-08-26T21:49:09.047Z,22.23
2022-08-26T21:51:40.626Z,22.77
2022-08-26T21:54:11.050Z,23.95
2022-08-26T21:56:45.863Z,16.08
2022-08-26T21:59:15.931Z,21.42
2022-08-26T22:01:43.304Z,17.77
2022-08-26T22:04:10.557Z,17.45
2022-08-26T22:06:45.713Z,13.63
2022-08-26T22:09:15.390Z,15.15
2022-08-26T22:11:42.703Z,18.52
2022-08-26T22:14:11.012Z,19.35
2022-08-26T22:16:38.622Z,20.35
2022-08-26T22:19:06.628Z,18.05
2022-08-26T22:21:35.031Z,20.48
2022-08-26T22:24:04.048Z,21.08
2022-08-26T22:26:32.817Z,14.05
2022-08-26T22:29:01.406Z,22.67
2022-08-26T22:34:08.126Z,22.27
2022-08-26T22:36:43.710Z,21.33
2022-08-26T22:39:14.929Z,13.93
2022-08-26T22:41:43.550Z,16.95
2022-08-26T22:44:11.526Z,16.23
2022-08-26T22:46:40.793Z,20.25
2022-08-26T22:49:11.509Z,18.70
2022-08-26T22:51:38.747Z,16.80
2022-08-26T22:54:06.028Z,29.90
2022-08-26T22:56:33.439Z,27.67
2022-08-26T22:59:00.591Z,19.48
2022-08-26T23:01:27.919Z,23.60
2022-08-26T23:03:55.270Z,16.55
2022-08-26T23:06:22.448Z,13.60
2022-08-26T23:08:49.587Z,17.60
2022-08-26T23:11:16.862Z,17.45
2022-08-26T23:13:43.976Z,21.30
2022-08-26T23:16:12.524Z,21.67
2022-08-26T23:21:08.573Z,41.05
2022-08-26T23:26:07.221Z,38.85
2022-08-26T23:28:36.763Z,43.53
2022-08-26T23:31:05.341Z,37.63
2022-08-26T23:33:51.498Z,66.18
2022-08-26T23:36:22.792Z,84.53
2022-08-26T23:38:52.795Z,77.38
2022-08-26T23:41:23.921Z,59.20
2022-08-26T23:43:51.346Z,33.58
2022-08-26T23:46:19.570Z,33.13
2022-08-26T23:48:47.430Z,27.13
2022-08-26T23:51:33.620Z,18.70
2022-08-26T23:54:00.892Z,38.00
2022-08-26T23:56:28.499Z,26.10
2022-08-26T23:58:56.173Z,16.95
